Time;durP1;ratioP1;P1;durP2;ratioP2;P2;SDS_P1;SDS_P2;PMS_P1;PMS_P2;Temp;Humidity;BMP_temperature;BMP_pressure;BME280_temperature;BME280_humidity;BME280_pressure;Samples;Min_cycle;Max_cycle;Signal;HPM_P1;HPM_P2
2021/07/22 00:02:20;;;;;;;10.10;7.50;;;13.70;99.90;;;;;;4966065;28;20565;-70
2021/07/22 00:04:46;;;;;;;8.33;7.43;;;13.70;99.90;;;;;;4969530;28;20435;-70
2021/07/22 00:07:12;;;;;;;7.83;7.10;;;13.60;99.90;;;;;;4972560;28;20427;-70
2021/07/22 00:09:39;;;;;;;10.07;7.67;;;13.60;99.90;;;;;;4976987;28;20514;-70
2021/07/22 00:12:08;;;;;;;10.00;8.17;;;13.70;99.90;;;;;;4974969;28;20235;-70
2021/07/22 00:14:34;;;;;;;10.13;8.13;;;13.70;99.90;;;;;;4973409;28;20447;-70
2021/07/22 00:17:02;;;;;;;10.43;8.60;;;13.70;99.90;;;;;;4970019;28;20779;-70
2021/07/22 00:19:28;;;;;;;11.17;8.47;;;13.70;99.90;;;;;;4952257;28;20518;-70
2021/07/22 00:21:54;;;;;;;12.50;9.33;;;13.70;99.90;;;;;;4965829;28;20415;-70
2021/07/22 00:24:20;;;;;;;12.70;8.77;;;13.70;99.90;;;;;;4968233;28;20455;-70
2021/07/22 00:26:45;;;;;;;10.20;8.20;;;13.70;99.90;;;;;;4976743;28;20522;-70
2021/07/22 00:29:11;;;;;;;11.17;8.63;;;13.70;99.90;;;;;;4976629;28;20172;-70
2021/07/22 00:31:36;;;;;;;12.47;10.30;;;13.70;99.90;;;;;;4972815;28;20188;-70
2021/07/22 00:34:02;;;;;;;11.70;9.50;;;13.80;99.90;;;;;;4975387;28;20196;-70
2021/07/22 00:36:28;;;;;;;10.30;8.53;;;13.90;99.90;;;;;;4953477;28;20176;-70
2021/07/22 00:38:53;;;;;;;12.40;9.80;;;13.90;99.90;;;;;;4975180;28;20163;-70
2021/07/22 00:41:19;;;;;;;12.10;9.30;;;14.00;99.90;;;;;;4975345;28;20172;-70
2021/07/22 00:43:44;;;;;;;11.03;9.20;;;14.00;99.90;;;;;;4978811;28;20191;-70
2021/07/22 00:46:10;;;;;;;10.60;8.80;;;14.10;99.90;;;;;;4970171;28;20222;-70
2021/07/22 00:48:37;;;;;;;14.60;9.33;;;14.10;99.90;;;;;;4972773;28;20179;-70
2021/07/22 00:51:03;;;;;;;12.07;9.20;;;14.20;99.90;;;;;;4975883;28;20172;-70
2021/07/22 00:53:29;;;;;;;12.70;9.30;;;14.10;99.90;;;;;;4976697;28;20459;-70
2021/07/22 00:55:54;;;;;;;10.10;8.23;;;14.10;99.90;;;;;;4972682;28;20514;-70
2021/07/22 00:58:20;;;;;;;15.40;9.23;;;14.20;99.90;;;;;;4962000;28;20643;-70
2021/07/22 01:00:46;;;;;;;10.47;9.13;;;14.20;99.90;;;;;;4965445;28;20222;-70
2021/07/22 01:03:11;;;;;;;12.77;9.00;;;14.30;99.90;;;;;;4982929;28;20192;-70
2021/07/22 01:05:38;;;;;;;10.37;8.90;;;14.40;99.90;;;;;;4973745;28;20231;-70
2021/07/22 01:08:03;;;;;;;13.03;9.73;;;14.40;99.90;;;;;;4962779;28;20609;-70
2021/07/22 01:10:29;;;;;;;11.70;8.20;;;14.40;99.90;;;;;;4969489;28;20429;-70
2021/07/22 01:12:55;;;;;;;10.60;8.77;;;14.50;99.90;;;;;;4989131;28;20184;-70
2021/07/22 01:15:21;;;;;;;10.03;8.20;;;14.50;99.90;;;;;;4965704;28;20435;-70
2021/07/22 01:17:49;;;;;;;10.90;8.80;;;14.50;99.90;;;;;;4975313;28;20477;-70
2021/07/22 01:20:14;;;;;;;10.40;8.83;;;14.60;99.90;;;;;;4974732;28;20172;-70
2021/07/22 01:22:40;;;;;;;9.63;8.30;;;14.60;99.90;;;;;;4975297;28;20420;-70
2021/07/22 01:25:07;;;;;;;11.10;8.90;;;14.60;99.90;;;;;;4978045;28;20168;-70
2021/07/22 01:27:32;;;;;;;11.27;9.23;;;14.60;99.90;;;;;;4971327;28;20434;-70
2021/07/22 01:29:58;;;;;;;10.97;9.20;;;14.50;99.90;;;;;;4981801;28;20418;-70
2021/07/22 01:32:24;;;;;;;14.00;10.10;;;14.50;99.90;;;;;;4981164;28;20197;-70
2021/07/22 01:34:49;;;;;;;11.10;8.87;;;14.40;99.90;;;;;;4970541;28;20233;-69
2021/07/22 01:37:15;;;;;;;11.50;9.57;;;14.30;99.90;;;;;;4944505;28;20175;-70
2021/07/22 01:39:41;;;;;;;11.47;9.50;;;14.40;99.90;;;;;;4975094;28;20172;-69
2021/07/22 01:42:07;;;;;;;10.20;9.10;;;14.40;99.90;;;;;;4974215;28;20175;-69
2021/07/22 01:44:33;;;;;;;10.67;9.30;;;14.40;99.90;;;;;;4971696;28;20176;-70
2021/07/22 01:46:59;;;;;;;12.73;8.77;;;14.40;99.90;;;;;;4971200;28;20755;-69
2021/07/22 01:49:25;;;;;;;10.70;8.93;;;14.30;99.90;;;;;;4979304;28;20198;-70
2021/07/22 01:51:50;;;;;;;10.60;8.60;;;14.30;99.90;;;;;;4962685;28;20188;-70
2021/07/22 01:54:16;;;;;;;9.17;8.20;;;14.30;99.90;;;;;;4974550;28;20449;-69
2021/07/22 01:56:41;;;;;;;10.93;8.87;;;14.20;99.90;;;;;;4973457;28;20180;-69
2021/07/22 01:59:07;;;;;;;10.43;9.00;;;14.20;99.90;;;;;;4970383;28;20298;-69
2021/07/22 02:01:33;;;;;;;12.23;9.27;;;14.20;99.90;;;;;;4976228;28;20473;-70
2021/07/22 02:03:58;;;;;;;10.03;8.27;;;14.20;99.90;;;;;;4970137;28;20176;-69
2021/07/22 02:06:24;;;;;;;11.40;9.30;;;14.20;99.90;;;;;;4977576;28;20277;-70
2021/07/22 02:08:49;;;;;;;9.80;8.50;;;14.20;99.90;;;;;;4973951;28;20259;-69
2021/07/22 02:11:15;;;;;;;10.33;8.53;;;14.20;99.90;;;;;;4974152;28;20172;-69
2021/07/22 02:13:41;;;;;;;10.90;8.07;;;14.20;99.90;;;;;;4964331;28;20621;-69
2021/07/22 02:16:10;;;;;;;12.70;9.93;;;14.20;99.90;;;;;;4975097;28;20250;-69
2021/07/22 02:18:35;;;;;;;11.50;8.57;;;14.30;99.90;;;;;;4974381;28;20561;-69
2021/07/22 02:21:05;;;;;;;13.33;9.63;;;14.20;99.90;;;;;;4972293;28;20446;-69
2021/07/22 02:23:32;;;;;;;14.27;10.03;;;14.20;99.90;;;;;;4967694;28;20214;-69
2021/07/22 02:25:58;;;;;;;12.73;9.83;;;14.10;99.90;;;;;;4972372;28;20493;-69
2021/07/22 02:28:23;;;;;;;11.80;9.60;;;14.10;99.90;;;;;;4973152;28;20920;-69
2021/07/22 02:30:49;;;;;;;11.17;8.70;;;14.20;99.90;;;;;;4973157;28;20222;-69
2021/07/22 02:33:15;;;;;;;9.30;7.80;;;14.10;99.90;;;;;;4973682;28;20199;-70
2021/07/22 02:35:40;;;;;;;14.23;9.00;;;14.10;99.90;;;;;;4966841;28;20175;-70
2021/07/22 02:38:06;;;;;;;10.43;8.53;;;14.10;99.90;;;;;;4982237;28;20176;-69
2021/07/22 02:40:31;;;;;;;10.40;9.27;;;14.20;99.90;;;;;;4973665;28;20510;-69
2021/07/22 02:42:57;;;;;;;11.20;9.13;;;14.20;99.90;;;;;;4970873;28;20179;-69
2021/07/22 02:45:22;;;;;;;9.53;8.50;;;14.10;99.90;;;;;;4973761;28;20172;-69
2021/07/22 02:47:48;;;;;;;11.10;8.80;;;14.10;99.90;;;;;;4971665;28;20653;-69
2021/07/22 02:50:14;;;;;;;10.10;9.10;;;14.10;99.90;;;;;;4964071;28;20198;-69
2021/07/22 02:52:39;;;;;;;10.90;9.00;;;14.00;99.90;;;;;;4974414;28;20254;-69
2021/07/22 02:55:05;;;;;;;9.23;8.33;;;14.00;99.90;;;;;;4970942;28;20640;-70
2021/07/22 02:57:31;;;;;;;11.07;9.03;;;14.00;99.90;;;;;;4954146;28;20178;-69
2021/07/22 02:59:58;;;;;;;10.43;9.37;;;14.00;99.90;;;;;;4973658;28;20168;-69
2021/07/22 03:02:24;;;;;;;11.17;9.10;;;13.90;99.90;;;;;;4967033;28;20175;-69
2021/07/22 03:04:49;;;;;;;12.83;8.90;;;13.80;99.90;;;;;;4975769;28;20769;-69
2021/07/22 03:07:15;;;;;;;10.33;8.87;;;13.80;99.90;;;;;;4973847;28;20245;-69
2021/07/22 03:09:41;;;;;;;14.50;9.30;;;13.80;99.90;;;;;;4977606;28;20176;-69
2021/07/22 03:12:07;;;;;;;9.73;8.47;;;13.70;99.90;;;;;;4975330;28;20168;-69
2021/07/22 03:14:32;;;;;;;10.93;8.30;;;13.70;99.90;;;;;;4970205;28;20522;-69
2021/07/22 03:16:58;;;;;;;16.33;10.10;;;13.60;99.90;;;;;;4969919;28;20427;-69
2021/07/22 03:19:23;;;;;;;10.97;8.60;;;13.70;99.90;;;;;;4969182;28;20211;-69
2021/07/22 03:21:49;;;;;;;10.83;9.60;;;13.70;99.90;;;;;;4971371;28;20168;-69
2021/07/22 03:24:15;;;;;;;10.37;8.90;;;13.70;99.90;;;;;;4968868;28;20184;-69
2021/07/22 03:26:40;;;;;;;11.10;9.00;;;13.70;99.90;;;;;;4969495;28;20314;-70
2021/07/22 03:29:06;;;;;;;10.57;9.47;;;13.70;99.90;;;;;;4970716;28;20636;-69
2021/07/22 03:31:31;;;;;;;14.27;10.37;;;13.60;99.90;;;;;;4967084;28;20183;-69
2021/07/22 03:33:57;;;;;;;11.63;8.93;;;13.60;99.90;;;;;;4969779;28;20196;-69
2021/07/22 03:36:23;;;;;;;10.07;8.60;;;13.60;99.90;;;;;;4977313;28;20179;-69
2021/07/22 03:38:48;;;;;;;12.53;9.13;;;13.60;99.90;;;;;;4976053;28;20259;-69
2021/07/22 03:41:17;;;;;;;11.50;9.60;;;13.60;99.90;;;;;;4976905;28;20164;-69
2021/07/22 03:43:43;;;;;;;12.87;9.47;;;13.70;99.90;;;;;;4974260;28;20176;-69
2021/07/22 03:46:09;;;;;;;14.80;10.57;;;13.70;99.90;;;;;;4976226;28;20430;-69
2021/07/22 03:48:34;;;;;;;12.90;10.67;;;13.80;99.90;;;;;;4972061;28;20435;-69
2021/07/22 03:51:00;;;;;;;12.33;9.13;;;13.80;99.90;;;;;;4973757;28;20188;-69
2021/07/22 03:53:26;;;;;;;10.20;8.77;;;13.80;99.90;;;;;;4975638;28;20313;-69
2021/07/22 03:55:51;;;;;;;11.37;9.37;;;13.80;99.90;;;;;;4979125;28;20176;-69
2021/07/22 03:58:18;;;;;;;11.80;9.67;;;13.90;99.90;;;;;;4965134;28;20171;-69
2021/07/22 04:00:43;;;;;;;9.60;7.50;;;13.90;99.90;;;;;;4979443;28;20230;-69
2021/07/22 04:03:11;;;;;;;10.60;9.00;;;14.00;99.90;;;;;;4973687;28;20427;-69
2021/07/22 04:05:40;;;;;;;12.37;9.70;;;14.10;99.90;;;;;;4982048;28;20187;-69
2021/07/22 04:08:05;;;;;;;14.40;10.30;;;14.10;99.90;;;;;;4975989;28;20423;-69
2021/07/22 04:10:31;;;;;;;13.43;9.43;;;14.10;99.90;;;;;;4981527;28;20461;-69
2021/07/22 04:13:00;;;;;;;11.50;9.10;;;14.10;99.90;;;;;;4980829;28;20196;-69
2021/07/22 04:15:27;;;;;;;12.43;9.03;;;14.20;99.90;;;;;;4973151;28;20645;-69
2021/07/22 04:17:55;;;;;;;12.90;8.77;;;14.30;99.90;;;;;;4970794;28;20422;-69
2021/07/22 04:20:22;;;;;;;12.33;9.60;;;14.40;99.90;;;;;;4975489;28;20425;-69
2021/07/22 04:22:48;;;;;;;12.00;9.07;;;14.40;99.90;;;;;;4975795;28;20422;-70
2021/07/22 04:25:14;;;;;;;11.47;9.20;;;14.40;99.90;;;;;;4976564;28;20476;-69
2021/07/22 04:27:41;;;;;;;11.37;8.93;;;14.40;99.90;;;;;;4975269;28;20411;-70
2021/07/22 04:30:07;;;;;;;13.80;9.30;;;14.40;99.90;;;;;;4974112;28;20431;-69
2021/07/22 04:32:33;;;;;;;12.17;9.13;;;14.40;99.90;;;;;;4975351;28;20744;-69
2021/07/22 04:34:58;;;;;;;11.73;9.23;;;14.40;99.90;;;;;;4976012;28;20435;-69
2021/07/22 04:37:24;;;;;;;15.67;9.30;;;14.40;99.90;;;;;;4950063;28;20248;-69
2021/07/22 04:39:49;;;;;;;13.67;9.40;;;14.40;99.90;;;;;;4973734;28;20168;-69
2021/07/22 04:42:15;;;;;;;15.97;9.70;;;14.40;99.90;;;;;;4975469;28;20188;-69
2021/07/22 04:44:41;;;;;;;12.53;9.70;;;14.40;99.90;;;;;;4972678;28;20176;-69
2021/07/22 04:47:06;;;;;;;12.77;9.57;;;14.40;99.90;;;;;;4967115;28;20183;-69
2021/07/22 04:49:32;;;;;;;12.67;9.30;;;14.40;99.90;;;;;;4968124;28;20195;-69
2021/07/22 04:52:01;;;;;;;12.40;9.80;;;14.50;99.90;;;;;;4973545;28;20183;-69
2021/07/22 04:54:26;;;;;;;13.37;10.00;;;14.50;99.90;;;;;;4973896;28;20323;-69
2021/07/22 04:56:52;;;;;;;11.60;9.30;;;14.50;99.90;;;;;;4972500;28;20518;-69
2021/07/22 04:59:18;;;;;;;12.27;9.50;;;14.50;99.90;;;;;;4976404;28;20191;-69
2021/07/22 05:01:43;;;;;;;10.13;8.40;;;14.50;99.90;;;;;;4980763;28;20183;-69
2021/07/22 05:04:15;;;;;;;13.47;9.87;;;14.60;99.90;;;;;;4975766;28;20570;-69
2021/07/22 05:06:41;;;;;;;13.27;9.90;;;14.60;99.90;;;;;;4966565;28;20275;-69
2021/07/22 05:09:06;;;;;;;13.43;9.10;;;14.60;99.90;;;;;;4971000;28;21008;-69
2021/07/22 05:11:32;;;;;;;11.17;8.90;;;14.70;99.90;;;;;;4973581;28;20180;-70
2021/07/22 05:13:57;;;;;;;11.50;9.73;;;14.70;99.90;;;;;;4972368;28;20204;-69
2021/07/22 05:16:23;;;;;;;12.63;9.63;;;14.70;99.90;;;;;;4984648;28;20505;-69
2021/07/22 05:18:51;;;;;;;11.17;8.90;;;14.80;99.90;;;;;;4972289;28;20191;-69
2021/07/22 05:21:17;;;;;;;11.03;9.03;;;14.80;99.90;;;;;;4976094;28;20602;-69
2021/07/22 05:23:42;;;;;;;13.10;9.03;;;14.90;99.90;;;;;;4972984;28;20434;-69
2021/07/22 05:26:11;;;;;;;9.10;7.77;;;15.00;99.90;;;;;;4975062;28;20176;-69
2021/07/22 05:28:40;;;;;;;9.90;7.37;;;15.00;99.90;;;;;;4974175;28;20631;-69
2021/07/22 05:31:10;;;;;;;10.83;8.53;;;15.10;99.90;;;;;;4982187;28;20447;-69
2021/07/22 05:34:00;;;;;;;19.73;9.60;;;15.20;99.90;;;;;;4975636;28;20447;-70
2021/07/22 05:36:25;;;;;;;9.87;7.90;;;15.30;99.90;;;;;;4983463;28;20934;-69
2021/07/22 05:38:50;;;;;;;7.73;6.93;;;15.40;99.90;;;;;;4973553;28;20415;-69
2021/07/22 05:41:16;;;;;;;10.30;8.13;;;15.40;99.90;;;;;;4972894;28;20179;-69
2021/07/22 05:43:42;;;;;;;9.47;8.00;;;15.50;99.90;;;;;;4973445;28;20187;-70
2021/07/22 05:46:08;;;;;;;9.17;6.60;;;15.60;99.90;;;;;;4972052;28;22663;-69
2021/07/22 05:48:34;;;;;;;9.23;7.23;;;15.50;99.90;;;;;;4973336;28;20443;-70
2021/07/22 05:51:03;;;;;;;7.90;6.87;;;15.70;99.90;;;;;;4980725;28;20245;-69
2021/07/22 05:53:29;;;;;;;9.70;7.23;;;15.70;99.90;;;;;;4975464;28;20199;-69
2021/07/22 05:55:59;;;;;;;7.87;6.30;;;15.80;99.90;;;;;;4974730;28;20533;-69
2021/07/22 05:58:25;;;;;;;7.83;6.47;;;15.80;99.90;;;;;;4983169;28;20699;-69
2021/07/22 06:00:50;;;;;;;6.37;5.73;;;15.80;99.90;;;;;;4969414;28;20421;-69
2021/07/22 06:03:16;;;;;;;12.67;7.97;;;15.80;99.90;;;;;;4972304;28;20186;-69
2021/07/22 06:05:42;;;;;;;10.23;7.23;;;15.80;99.90;;;;;;4982009;28;20287;-69
2021/07/22 06:08:07;;;;;;;6.90;6.20;;;15.80;99.90;;;;;;4980024;28;20270;-70
2021/07/22 06:10:33;;;;;;;7.73;6.70;;;15.80;99.90;;;;;;4980941;28;20180;-70
2021/07/22 06:12:59;;;;;;;7.60;5.80;;;15.80;99.90;;;;;;4969897;28;20275;-69
2021/07/22 06:15:25;;;;;;;6.77;5.70;;;15.90;99.90;;;;;;4971653;28;20617;-69
2021/07/22 06:17:51;;;;;;;7.20;6.50;;;15.90;99.90;;;;;;4979919;28;20420;-70
2021/07/22 06:20:17;;;;;;;9.43;7.00;;;16.00;99.90;;;;;;4969263;28;20164;-70
2021/07/22 06:22:46;;;;;;;8.33;6.23;;;16.10;99.90;;;;;;4972703;28;20552;-70
2021/07/22 06:25:13;;;;;;;7.33;6.40;;;16.10;99.90;;;;;;4978024;28;20419;-69
2021/07/22 06:27:43;;;;;;;8.13;6.93;;;16.10;99.90;;;;;;4972320;28;20432;-69
2021/07/22 06:30:10;;;;;;;7.13;6.43;;;16.20;99.90;;;;;;4971477;28;20431;-70
2021/07/22 06:32:35;;;;;;;8.37;6.20;;;16.20;99.90;;;;;;4973975;28;20454;-71
2021/07/22 06:35:01;;;;;;;6.77;6.13;;;16.30;99.90;;;;;;4976226;28;20463;-70
2021/07/22 06:37:27;;;;;;;7.13;5.77;;;16.30;99.90;;;;;;4981571;28;20238;-70
2021/07/22 06:39:53;;;;;;;6.97;6.00;;;16.40;99.90;;;;;;4976903;28;20179;-70
2021/07/22 06:42:18;;;;;;;5.60;5.00;;;16.40;99.90;;;;;;4970610;28;20251;-70
2021/07/22 06:44:44;;;;;;;6.83;6.10;;;16.50;99.90;;;;;;4974576;28;20222;-70
2021/07/22 06:47:09;;;;;;;6.03;5.20;;;16.60;99.90;;;;;;4974612;28;20187;-70
2021/07/22 06:49:35;;;;;;;5.67;4.67;;;16.60;99.90;;;;;;4971801;28;20184;-70
2021/07/22 06:52:01;;;;;;;5.90;5.30;;;16.70;99.90;;;;;;4972808;28;20613;-70
2021/07/22 06:54:26;;;;;;;5.50;4.70;;;16.70;99.90;;;;;;4971507;28;20238;-70
2021/07/22 06:56:52;;;;;;;7.03;5.37;;;16.80;99.90;;;;;;4967308;28;20207;-70
2021/07/22 06:59:18;;;;;;;6.47;5.87;;;16.90;99.90;;;;;;4972667;28;20168;-70
2021/07/22 07:01:43;;;;;;;6.07;5.47;;;16.90;99.90;;;;;;4970394;28;20187;-70
2021/07/22 07:04:09;;;;;;;5.33;4.83;;;16.90;99.90;;;;;;4971837;28;20199;-70
2021/07/22 07:06:36;;;;;;;7.50;5.30;;;16.90;99.90;;;;;;4971000;28;20183;-70
2021/07/22 07:09:05;;;;;;;6.70;5.20;;;16.90;99.90;;;;;;4968904;28;20178;-70
2021/07/22 07:11:31;;;;;;;6.03;5.40;;;17.00;99.90;;;;;;4976432;28;20449;-70
2021/07/22 07:13:56;;;;;;;9.63;5.30;;;17.10;99.90;;;;;;4972492;28;20567;-70
2021/07/22 07:16:22;;;;;;;5.23;4.73;;;17.30;99.90;;;;;;4970659;28;20468;-70
2021/07/22 07:18:48;;;;;;;6.43;5.20;;;17.40;99.90;;;;;;4968260;28;20180;-70
2021/07/22 07:21:14;;;;;;;6.97;5.10;;;17.60;99.90;;;;;;4974606;28;20176;-70
2021/07/22 07:23:40;;;;;;;6.10;5.23;;;17.80;99.90;;;;;;4974205;28;20192;-70
2021/07/22 07:26:11;;;;;;;7.33;6.03;;;17.90;99.90;;;;;;4975037;28;20474;-70
2021/07/22 07:28:38;;;;;;;5.80;4.87;;;18.00;99.90;;;;;;4976188;28;20227;-70
2021/07/22 07:31:03;;;;;;;5.10;4.70;;;17.90;99.90;;;;;;4974358;28;20431;-70
2021/07/22 07:33:29;;;;;;;7.63;5.73;;;18.00;99.90;;;;;;4977127;28;20451;-74
2021/07/22 07:35:55;;;;;;;5.80;4.93;;;18.00;99.90;;;;;;4972303;28;20179;-71
2021/07/22 07:38:22;;;;;;;7.23;6.40;;;18.20;99.90;;;;;;4956925;28;20168;-70
2021/07/22 07:40:47;;;;;;;5.27;4.77;;;18.30;99.90;;;;;;4970978;28;20432;-71
2021/07/22 07:43:15;;;;;;;5.87;5.27;;;18.30;99.90;;;;;;4972187;28;20432;-71
2021/07/22 07:45:41;;;;;;;5.73;5.20;;;18.40;99.90;;;;;;4983060;28;20180;-70
2021/07/22 07:48:06;;;;;;;7.17;6.47;;;18.40;99.90;;;;;;4974071;28;20486;-77
2021/07/22 07:50:32;;;;;;;6.10;5.60;;;18.50;99.90;;;;;;4973849;28;20190;-76
2021/07/22 07:52:58;;;;;;;7.70;5.30;;;18.50;99.90;;;;;;4976479;28;20249;-75
2021/07/22 07:55:23;;;;;;;6.13;5.27;;;18.70;99.90;;;;;;4974184;28;20211;-75
2021/07/22 07:57:49;;;;;;;5.80;5.20;;;18.70;99.90;;;;;;4973254;28;20234;-75
2021/07/22 08:00:15;;;;;;;5.83;5.40;;;18.70;99.90;;;;;;4979737;28;20168;-76
2021/07/22 08:02:41;;;;;;;6.90;6.20;;;18.80;99.90;;;;;;4977018;28;20175;-75
2021/07/22 08:05:07;;;;;;;5.83;5.23;;;18.80;99.90;;;;;;4970051;28;20233;-76
2021/07/22 08:07:34;;;;;;;5.90;5.23;;;18.80;99.90;;;;;;4966475;28;20415;-75
2021/07/22 08:09:59;;;;;;;5.47;4.93;;;18.80;99.90;;;;;;4968814;28;20776;-75
2021/07/22 08:12:26;;;;;;;15.30;5.70;;;18.70;99.90;;;;;;4975561;28;20431;-75
2021/07/22 08:14:51;;;;;;;5.20;4.80;;;18.70;99.90;;;;;;4979798;28;20452;-75
2021/07/22 08:17:20;;;;;;;6.50;5.27;;;18.70;99.90;;;;;;4975009;28;20173;-75
2021/07/22 08:19:46;;;;;;;5.30;4.83;;;18.60;99.90;;;;;;4968401;28;20648;-75
2021/07/22 08:22:13;;;;;;;6.00;4.87;;;18.60;99.90;;;;;;4975182;28;20454;-75
2021/07/22 08:24:39;;;;;;;5.67;5.17;;;18.90;99.90;;;;;;4978150;28;20179;-76
2021/07/22 08:27:05;;;;;;;6.87;6.27;;;19.20;99.90;;;;;;4978180;28;20431;-75
2021/07/22 08:29:31;;;;;;;5.27;4.77;;;19.30;99.90;;;;;;4986095;28;20518;-75
2021/07/22 08:31:57;;;;;;;5.73;4.80;;;19.30;99.90;;;;;;4988030;28;20476;-74
2021/07/22 08:34:24;;;;;;;5.13;4.50;;;19.30;99.90;;;;;;4984101;28;20482;-75
2021/07/22 08:36:50;;;;;;;5.30;4.60;;;19.40;99.90;;;;;;4975875;28;20199;-75
2021/07/22 08:39:16;;;;;;;8.90;6.13;;;19.50;99.90;;;;;;4979144;28;20439;-75
2021/07/22 08:41:46;;;;;;;5.33;4.83;;;19.60;99.90;;;;;;4980431;28;22367;-75
2021/07/22 08:44:13;;;;;;;5.60;4.73;;;19.70;99.90;;;;;;4988428;28;20431;-75
2021/07/22 08:46:43;;;;;;;4.93;4.50;;;19.90;99.90;;;;;;4986319;28;20454;-75
2021/07/22 08:49:09;;;;;;;7.13;5.13;;;20.00;99.90;;;;;;4973083;28;20454;-75
2021/07/22 08:51:35;;;;;;;5.63;4.50;;;20.10;99.90;;;;;;4981993;28;20460;-75
2021/07/22 08:54:01;;;;;;;9.03;5.27;;;20.10;99.90;;;;;;4978025;28;20595;-75
2021/07/22 08:56:28;;;;;;;4.53;4.23;;;20.00;99.90;;;;;;4977369;28;20195;-75
2021/07/22 08:58:57;;;;;;;4.20;3.90;;;19.70;99.90;;;;;;4989081;28;20505;-75
2021/07/22 09:01:26;;;;;;;4.17;3.87;;;19.80;99.90;;;;;;4975738;28;20759;-75
2021/07/22 09:03:52;;;;;;;5.30;4.90;;;19.80;99.90;;;;;;4972214;28;20431;-75
2021/07/22 09:06:19;;;;;;;4.70;4.40;;;20.00;99.90;;;;;;4965331;28;20438;-75
2021/07/22 09:08:46;;;;;;;5.27;4.87;;;19.90;99.90;;;;;;4976829;28;20525;-75
2021/07/22 09:11:12;;;;;;;5.60;4.50;;;20.00;99.90;;;;;;4977053;28;20459;-75
2021/07/22 09:13:38;;;;;;;4.93;4.53;;;19.90;99.90;;;;;;4974994;28;20834;-75
2021/07/22 09:16:04;;;;;;;9.97;4.90;;;19.90;99.90;;;;;;4973244;28;20183;-75
2021/07/22 09:18:34;;;;;;;4.07;3.80;;;20.00;99.90;;;;;;4973961;28;20423;-73
2021/07/22 09:21:23;;;;;;;5.00;4.50;;;20.10;99.90;;;;;;4972319;28;20191;-73
2021/07/22 09:24:21;;;;;;;4.90;4.60;;;20.40;99.90;;;;;;4975848;28;20435;-74
2021/07/22 09:26:50;;;;;;;4.83;4.20;;;20.50;99.90;;;;;;4923376;28;20893;-73
2021/07/22 09:29:17;;;;;;;4.90;4.50;;;20.80;99.90;;;;;;4970290;28;20419;-72
2021/07/22 09:31:43;;;;;;;3.90;3.60;;;20.80;99.90;;;;;;4973822;28;20429;-73
2021/07/22 09:34:24;;;;;;;4.43;4.13;;;20.90;99.90;;;;;;4972289;28;20508;-73
2021/07/22 09:36:50;;;;;;;4.77;4.40;;;21.10;99.90;;;;;;4972455;28;20424;-73
2021/07/22 09:39:20;;;;;;;4.73;4.37;;;21.40;99.90;;;;;;4972044;28;20454;-73
2021/07/22 09:42:04;;;;;;;4.30;4.00;;;21.50;99.90;;;;;;4968630;28;20721;-73
2021/07/22 09:44:34;;;;;;;4.70;4.37;;;21.40;99.90;;;;;;4973605;28;20419;-73
2021/07/22 09:47:02;;;;;;;5.00;4.60;;;21.40;99.90;;;;;;4965715;28;20508;-74
2021/07/22 09:49:36;;;;;;;4.10;3.80;;;21.40;99.90;;;;;;4973389;28;20443;-73
2021/07/22 09:52:03;;;;;;;5.20;4.70;;;21.40;99.90;;;;;;4977468;28;20430;-74
2021/07/22 09:54:34;;;;;;;6.20;5.60;;;21.30;99.90;;;;;;4976864;28;20450;-73
2021/07/22 09:57:02;;;;;;;5.10;4.70;;;21.40;99.90;;;;;;4971254;28;20419;-74
2021/07/22 09:59:29;;;;;;;4.93;4.40;;;21.40;99.90;;;;;;4965327;28;20426;-74
2021/07/22 10:01:59;;;;;;;4.73;4.40;;;21.30;99.90;;;;;;4967482;28;20767;-73
2021/07/22 10:04:29;;;;;;;4.83;4.53;;;21.40;99.90;;;;;;4975901;28;20466;-74
2021/07/22 10:06:57;;;;;;;5.23;3.90;;;21.50;99.90;;;;;;4979447;28;21215;-74
2021/07/22 10:09:25;;;;;;;5.40;5.00;;;21.70;99.90;;;;;;4976958;28;20426;-73
2021/07/22 10:11:52;;;;;;;4.43;4.13;;;21.30;99.90;;;;;;4978548;28;20730;-72
2021/07/22 10:14:20;;;;;;;4.63;4.23;;;21.20;99.90;;;;;;4972373;28;20451;-72
2021/07/22 10:16:48;;;;;;;4.53;4.13;;;21.10;99.90;;;;;;4981278;28;20418;-72
2021/07/22 10:19:16;;;;;;;5.00;4.30;;;21.10;99.90;;;;;;4984705;28;20457;-72
2021/07/22 10:21:43;;;;;;;6.10;5.33;;;21.20;99.90;;;;;;4973202;28;20453;-73
2021/07/22 10:24:09;;;;;;;3.93;3.63;;;21.40;99.90;;;;;;4954338;28;20431;-73
2021/07/22 10:26:42;;;;;;;5.40;4.90;;;21.40;99.90;;;;;;4972246;28;20586;-73
2021/07/22 10:29:07;;;;;;;5.23;4.83;;;21.60;99.90;;;;;;4969714;28;20423;-73
2021/07/22 10:31:39;;;;;;;4.50;4.10;;;21.80;99.90;;;;;;4973115;28;20428;-73
2021/07/22 10:34:07;;;;;;;6.17;4.60;;;21.90;99.90;;;;;;4974358;28;20301;-73
2021/07/22 10:36:33;;;;;;;4.87;4.40;;;21.90;99.90;;;;;;4973667;28;20419;-73
2021/07/22 10:38:58;;;;;;;4.50;3.90;;;21.80;99.90;;;;;;4964498;28;20824;-74
2021/07/22 10:41:37;;;;;;;4.17;3.80;;;21.80;99.90;;;;;;4962171;28;20420;-73
2021/07/22 10:44:33;;;;;;;4.43;4.10;;;21.70;99.90;;;;;;4978212;28;20478;-73
2021/07/22 10:47:00;;;;;;;4.23;3.90;;;21.50;99.90;;;;;;4959740;28;20465;-73
2021/07/22 10:49:42;;;;;;;4.30;3.90;;;21.50;99.90;;;;;;4982418;28;20438;-75
2021/07/22 10:52:13;;;;;;;6.90;4.40;;;21.30;99.90;;;;;;4985592;28;20950;-77
2021/07/22 10:54:39;;;;;;;10.77;4.40;;;21.50;99.90;;;;;;4961206;28;20553;-74
2021/07/22 10:57:05;;;;;;;5.80;4.70;;;21.70;99.90;;;;;;4989399;28;20431;-74
2021/07/22 10:59:54;;;;;;;4.60;4.20;;;21.70;99.90;;;;;;4974494;28;20184;-75
2021/07/22 11:02:40;;;;;;;5.03;4.63;;;21.80;99.90;;;;;;4977745;28;21010;-74
2021/07/22 11:05:07;;;;;;;4.70;3.90;;;21.90;99.90;;;;;;4983076;28;20418;-74
2021/07/22 11:07:32;;;;;;;4.37;4.00;;;22.10;99.90;;;;;;4973836;28;20438;-75
2021/07/22 11:09:58;;;;;;;5.00;4.70;;;22.40;99.90;;;;;;4978632;28;20445;-72
2021/07/22 11:12:44;;;;;;;4.63;4.30;;;22.50;99.90;;;;;;4974509;28;20179;-75
2021/07/22 11:15:44;;;;;;;4.43;4.10;;;22.40;99.90;;;;;;4976225;28;20913;-74
2021/07/22 11:18:44;;;;;;;7.77;5.03;;;22.30;99.90;;;;;;4973366;28;20434;-74
2021/07/22 11:21:11;;;;;;;3.90;3.70;;;22.30;99.90;;;;;;4973798;28;20410;-74
2021/07/22 11:23:37;;;;;;;4.93;4.40;;;22.30;99.90;;;;;;4983057;28;20430;-75
2021/07/22 11:26:03;;;;;;;4.50;4.10;;;22.50;99.90;;;;;;4974417;28;20446;-75
2021/07/22 11:28:29;;;;;;;4.50;4.10;;;22.10;99.90;;;;;;4978280;28;20502;-75
2021/07/22 11:31:02;;;;;;;3.70;3.50;;;22.00;99.90;;;;;;4966978;28;20537;-74
2021/07/22 11:33:32;;;;;;;3.37;3.17;;;22.00;99.90;;;;;;4975585;28;20624;-75
2021/07/22 11:36:01;;;;;;;3.97;3.67;;;22.00;99.90;;;;;;4971374;28;20438;-75
2021/07/22 11:38:27;;;;;;;4.73;4.40;;;21.90;99.90;;;;;;4968067;28;21599;-74
2021/07/22 11:40:54;;;;;;;5.13;4.70;;;21.90;99.90;;;;;;4975863;28;20543;-74
2021/07/22 11:43:36;;;;;;;4.07;3.80;;;21.90;99.90;;;;;;4971816;28;20427;-74
2021/07/22 11:46:02;;;;;;;4.10;3.80;;;21.90;99.90;;;;;;4964502;28;21162;-74
2021/07/22 11:48:28;;;;;;;4.00;3.70;;;21.80;99.90;;;;;;4968875;28;20435;-76
2021/07/22 11:51:14;;;;;;;4.40;4.10;;;21.90;99.90;;;;;;4971257;28;20439;-75
2021/07/22 11:53:41;;;;;;;3.93;3.63;;;22.00;99.90;;;;;;4975477;28;20567;-74
2021/07/22 11:56:11;;;;;;;4.53;4.20;;;22.20;99.90;;;;;;4974542;28;20514;-74
2021/07/22 11:58:38;;;;;;;4.23;3.90;;;22.40;99.90;;;;;;4974630;28;20892;-74
2021/07/22 12:01:06;;;;;;;5.43;4.77;;;22.40;99.90;;;;;;4968520;28;20428;-74
2021/07/22 12:03:32;;;;;;;4.30;4.00;;;22.30;99.90;;;;;;4970592;28;20514;-73
2021/07/22 12:05:58;;;;;;;5.13;4.17;;;22.20;99.90;;;;;;4959042;28;20534;-74
2021/07/22 12:08:23;;;;;;;4.17;3.87;;;22.40;99.90;;;;;;4971599;28;20176;-73
2021/07/22 12:10:50;;;;;;;5.00;4.50;;;22.60;99.90;;;;;;4970568;28;20183;-73
2021/07/22 12:13:16;;;;;;;3.50;3.20;;;23.00;99.90;;;;;;4972477;28;20204;-73
2021/07/22 12:15:44;;;;;;;4.10;3.80;;;23.40;99.90;;;;;;4970052;28;20446;-73
2021/07/22 12:18:12;;;;;;;4.57;3.40;;;23.50;99.90;;;;;;4972342;28;20514;-73
2021/07/22 12:20:38;;;;;;;4.17;3.80;;;23.80;99.90;;;;;;4971351;28;20426;-73
2021/07/22 12:23:26;;;;;;;3.87;3.60;;;23.90;99.90;;;;;;4968343;28;20979;-72
2021/07/22 12:26:04;;;;;;;4.33;4.00;;;23.70;99.90;;;;;;4969627;28;20363;-73
2021/07/22 12:28:31;;;;;;;3.93;3.70;;;23.80;99.90;;;;;;4969711;28;20782;-73
2021/07/22 12:31:20;;;;;;;4.20;3.73;;;23.70;99.90;;;;;;4972692;28;20415;-73
2021/07/22 12:34:02;;;;;;;4.40;4.10;;;23.40;99.90;;;;;;4964789;28;20459;-73
2021/07/22 12:36:31;;;;;;;3.93;3.57;;;23.40;99.90;;;;;;4974122;28;20431;-73
2021/07/22 12:39:09;;;;;;;6.40;4.00;;;23.80;99.90;;;;;;4953291;28;20424;-73
2021/07/22 12:41:34;;;;;;;3.97;3.77;;;24.30;99.90;;;;;;4978312;28;20430;-73
2021/07/22 12:44:00;;;;;;;4.00;3.70;;;24.60;99.90;;;;;;4972441;28;20441;-73
2021/07/22 12:46:30;;;;;;;3.97;3.40;;;24.60;99.90;;;;;;4974383;28;20180;-73